sensor_id;sensor_type;location;lat;lon;timestamp;pressure;altitude;pressure_sealevel;temperature
68446;BMP280;35789;48.414;12.768;2023-02-02T00:00:00;97170.0;;;
68446;BMP280;35789;48.414;12.768;2023-02-02T00:05:00;97180.0;;;
68446;BMP280;35789;48.414;12.768;2023-02-02T00:10:00;97190.0;;;
68446;BMP280;35789;48.414;12.768;2023-02-02T00:15:00;97180.0;;;
68446;BMP280;35789;48.414;12.768;2023-02-02T00:20:00;97160.0;;;
68446;BMP280;35789;48.414;12.768;2023-02-02T00:25:00;97150.0;;;
68446;BMP280;35789;48.414;12.768;2023-02-02T00:30:00;97160.0;;;
68446;BMP280;35789;48.414;12.768;2023-02-02T00:35:00;97160.0;;;
68446;BMP280;35789;48.414;12.768;2023-02-02T00:40:00;97150.0;;;
68446;BMP280;35789;48.414;12.768;2023-02-02T00:45:01;97150.0;;;
68446;BMP280;35789;48.414;12.768;2023-02-02T00:50:00;97150.0;;;
68446;BMP280;35789;48.414;12.768;2023-02-02T00:55:00;97150.0;;;
68446;BMP280;35789;48.414;12.768;2023-02-02T01:00:01;97160.0;;;
68446;BMP280;35789;48.414;12.768;2023-02-02T01:05:00;97150.0;;;
68446;BMP280;35789;48.414;12.768;2023-02-02T01:10:00;97150.0;;;
68446;BMP280;35789;48.414;12.768;2023-02-02T01:15:00;97140.0;;;
68446;BMP280;35789;48.414;12.768;2023-02-02T01:20:00;97140.0;;;
68446;BMP280;35789;48.414;12.768;2023-02-02T01:25:00;97140.0;;;
68446;BMP280;35789;48.414;12.768;2023-02-02T01:30:00;97160.0;;;
68446;BMP280;35789;48.414;12.768;2023-02-02T01:35:00;97150.0;;;
68446;BMP280;35789;48.414;12.768;2023-02-02T01:40:00;97150.0;;;
68446;BMP280;35789;48.414;12.768;2023-02-02T01:45:15;97140.0;;;
68446;BMP280;35789;48.414;12.768;2023-02-02T01:50:01;97160.0;;;
68446;BMP280;35789;48.414;12.768;2023-02-02T01:55:04;97130.0;;;
68446;BMP280;35789;48.414;12.768;2023-02-02T02:00:05;97140.0;;;
68446;BMP280;35789;48.414;12.768;2023-02-02T02:05:02;97150.0;;;
68446;BMP280;35789;48.414;12.768;2023-02-02T02:10:00;97150.0;;;
68446;BMP280;35789;48.414;12.768;2023-02-02T02:15:00;97150.0;;;
68446;BMP280;35789;48.414;12.768;2023-02-02T02:20:31;97150.0;;;
68446;BMP280;35789;48.414;12.768;2023-02-02T02:25:26;97160.0;;;
68446;BMP280;35789;48.414;12.768;2023-02-02T02:30:19;97170.0;;;
68446;BMP280;35789;48.414;12.768;2023-02-02T02:35:09;97150.0;;;
68446;BMP280;35789;48.414;12.768;2023-02-02T02:40:07;97150.0;;;
68446;BMP280;35789;48.414;12.768;2023-02-02T02:45:03;97140.0;;;
68446;BMP280;35789;48.414;12.768;2023-02-02T02:50:00;97150.0;;;
68446;BMP280;35789;48.414;12.768;2023-02-02T02:55:02;97140.0;;;
68446;BMP280;35789;48.414;12.768;2023-02-02T03:00:11;97150.0;;;
68446;BMP280;35789;48.414;12.768;2023-02-02T03:05:13;97140.0;;;
68446;BMP280;35789;48.414;12.768;2023-02-02T03:10:03;97170.0;;;
68446;BMP280;35789;48.414;12.768;2023-02-02T03:15:04;97150.0;;;
68446;BMP280;35789;48.414;12.768;2023-02-02T03:20:00;97150.0;;;
68446;BMP280;35789;48.414;12.768;2023-02-02T03:25:00;97150.0;;;
68446;BMP280;35789;48.414;12.768;2023-02-02T03:30:00;97160.0;;;
68446;BMP280;35789;48.414;12.768;2023-02-02T03:35:00;97150.0;;;
68446;BMP280;35789;48.414;12.768;2023-02-02T03:40:00;97160.0;;;
68446;BMP280;35789;48.414;12.768;2023-02-02T03:45:00;97150.0;;;
68446;BMP280;35789;48.414;12.768;2023-02-02T03:50:00;97160.0;;;
68446;BMP280;35789;48.414;12.768;2023-02-02T03:55:00;97170.0;;;
68446;BMP280;35789;48.414;12.768;2023-02-02T04:00:00;97170.0;;;
68446;BMP280;35789;48.414;12.768;2023-02-02T04:05:00;97170.0;;;
68446;BMP280;35789;48.414;12.768;2023-02-02T04:10:00;97200.0;;;
68446;BMP280;35789;48.414;12.768;2023-02-02T04:15:00;97200.0;;;
68446;BMP280;35789;48.414;12.768;2023-02-02T04:20:00;97210.0;;;
68446;BMP280;35789;48.414;12.768;2023-02-02T04:25:00;97210.0;;;
68446;BMP280;35789;48.414;12.768;2023-02-02T04:30:00;97220.0;;;
68446;BMP280;35789;48.414;12.768;2023-02-02T04:35:00;97210.0;;;
68446;BMP280;35789;48.414;12.768;2023-02-02T04:40:00;97220.0;;;
68446;BMP280;35789;48.414;12.768;2023-02-02T04:45:00;97220.0;;;
68446;BMP280;35789;48.414;12.768;2023-02-02T04:50:00;97230.0;;;
68446;BMP280;35789;48.414;12.768;2023-02-02T04:55:00;97250.0;;;
68446;BMP280;35789;48.414;12.768;2023-02-02T05:00:00;97280.0;;;
68446;BMP280;35789;48.414;12.768;2023-02-02T05:05:00;97300.0;;;
68446;BMP280;35789;48.414;12.768;2023-02-02T05:10:00;97310.0;;;
68446;BMP280;35789;48.414;12.768;2023-02-02T05:15:00;97330.0;;;
68446;BMP280;35789;48.414;12.768;2023-02-02T05:20:00;97340.0;;;
68446;BMP280;35789;48.414;12.768;2023-02-02T05:25:00;97350.0;;;
68446;BMP280;35789;48.414;12.768;2023-02-02T05:30:00;97350.0;;;
68446;BMP280;35789;48.414;12.768;2023-02-02T05:35:00;97340.0;;;
68446;BMP280;35789;48.414;12.768;2023-02-02T05:40:00;97340.0;;;
68446;BMP280;35789;48.414;12.768;2023-02-02T05:45:00;97330.0;;;
68446;BMP280;35789;48.414;12.768;2023-02-02T05:50:00;97330.0;;;
68446;BMP280;35789;48.414;12.768;2023-02-02T05:55:00;97340.0;;;
68446;BMP280;35789;48.414;12.768;2023-02-02T06:00:01;97340.0;;;
68446;BMP280;35789;48.414;12.768;2023-02-02T06:05:00;97350.0;;;
68446;BMP280;35789;48.414;12.768;2023-02-02T06:10:00;97360.0;;;
68446;BMP280;35789;48.414;12.768;2023-02-02T06:15:00;97370.0;;;
68446;BMP280;35789;48.414;12.768;2023-02-02T06:20:00;97370.0;;;
68446;BMP280;35789;48.414;12.768;2023-02-02T06:25:00;97370.0;;;
68446;BMP280;35789;48.414;12.768;2023-02-02T06:30:00;97380.0;;;
68446;BMP280;35789;48.414;12.768;2023-02-02T06:35:00;97390.0;;;
68446;BMP280;35789;48.414;12.768;2023-02-02T06:40:00;97380.0;;;
68446;BMP280;35789;48.414;12.768;2023-02-02T06:45:01;97380.0;;;
68446;BMP280;35789;48.414;12.768;2023-02-02T06:50:00;97390.0;;;
68446;BMP280;35789;48.414;12.768;2023-02-02T06:55:00;97400.0;;;
68446;BMP280;35789;48.414;12.768;2023-02-02T07:00:00;97410.0;;;
68446;BMP280;35789;48.414;12.768;2023-02-02T07:05:01;97410.0;;;
68446;BMP280;35789;48.414;12.768;2023-02-02T07:10:00;97420.0;;;
68446;BMP280;35789;48.414;12.768;2023-02-02T07:15:00;97420.0;;;
68446;BMP280;35789;48.414;12.768;2023-02-02T07:20:00;97420.0;;;
68446;BMP280;35789;48.414;12.768;2023-02-02T07:25:00;97420.0;;;
68446;BMP280;35789;48.414;12.768;2023-02-02T07:30:00;97410.0;;;
68446;BMP280;35789;48.414;12.768;2023-02-02T07:35:00;97420.0;;;
68446;BMP280;35789;48.414;12.768;2023-02-02T07:40:00;97420.0;;;
68446;BMP280;35789;48.414;12.768;2023-02-02T07:45:00;97420.0;;;
68446;BMP280;35789;48.414;12.768;2023-02-02T07:50:00;97430.0;;;
68446;BMP280;35789;48.414;12.768;2023-02-02T07:55:00;97430.0;;;
68446;BMP280;35789;48.414;12.768;2023-02-02T08:00:00;97420.0;;;
68446;BMP280;35789;48.414;12.768;2023-02-02T08:05:00;97430.0;;;
68446;BMP280;35789;48.414;12.768;2023-02-02T08:10:00;97440.0;;;
68446;BMP280;35789;48.414;12.768;2023-02-02T08:15:00;97430.0;;;
68446;BMP280;35789;48.414;12.768;2023-02-02T08:20:00;97430.0;;;
68446;BMP280;35789;48.414;12.768;2023-02-02T08:25:00;97440.0;;;
68446;BMP280;35789;48.414;12.768;2023-02-02T08:30:00;97440.0;;;
68446;BMP280;35789;48.414;12.768;2023-02-02T08:35:00;97450.0;;;
68446;BMP280;35789;48.414;12.768;2023-02-02T08:40:00;97450.0;;;
68446;BMP280;35789;48.414;12.768;2023-02-02T08:45:00;97460.0;;;
68446;BMP280;35789;48.414;12.768;2023-02-02T08:50:00;97460.0;;;
68446;BMP280;35789;48.414;12.768;2023-02-02T08:55:00;97470.0;;;
68446;BMP280;35789;48.414;12.768;2023-02-02T09:00:00;97470.0;;;
68446;BMP280;35789;48.414;12.768;2023-02-02T09:05:00;97480.0;;;
68446;BMP280;35789;48.414;12.768;2023-02-02T09:10:00;97480.0;;;
68446;BMP280;35789;48.414;12.768;2023-02-02T09:15:00;97490.0;;;
68446;BMP280;35789;48.414;12.768;2023-02-02T09:20:00;97500.0;;;
68446;BMP280;35789;48.414;12.768;2023-02-02T09:25:00;97490.0;;;
68446;BMP280;35789;48.414;12.768;2023-02-02T09:30:00;97500.0;;;
68446;BMP280;35789;48.414;12.768;2023-02-02T09:35:00;97500.0;;;
68446;BMP280;35789;48.414;12.768;2023-02-02T09:40:00;97500.0;;;
68446;BMP280;35789;48.414;12.768;2023-02-02T09:45:07;97510.0;;;
68446;BMP280;35789;48.414;12.768;2023-02-02T09:50:07;97510.0;;;
68446;BMP280;35789;48.414;12.768;2023-02-02T09:55:08;97520.0;;;
68446;BMP280;35789;48.414;12.768;2023-02-02T10:00:00;97520.0;;;
68446;BMP280;35789;48.414;12.768;2023-02-02T10:05:10;97520.0;;;
68446;BMP280;35789;48.414;12.768;2023-02-02T10:10:08;97520.0;;;
68446;BMP280;35789;48.414;12.768;2023-02-02T10:15:10;97530.0;;;
68446;BMP280;35789;48.414;12.768;2023-02-02T10:20:14;97520.0;;;
68446;BMP280;35789;48.414;12.768;2023-02-02T10:25:01;97520.0;;;
68446;BMP280;35789;48.414;12.768;2023-02-02T10:30:10;97510.0;;;
68446;BMP280;35789;48.414;12.768;2023-02-02T10:35:20;97510.0;;;
68446;BMP280;35789;48.414;12.768;2023-02-02T10:40:16;97510.0;;;
68446;BMP280;35789;48.414;12.768;2023-02-02T10:45:04;97510.0;;;
68446;BMP280;35789;48.414;12.768;2023-02-02T10:50:15;97510.0;;;
68446;BMP280;35789;48.414;12.768;2023-02-02T10:55:05;97510.0;;;
68446;BMP280;35789;48.414;12.768;2023-02-02T11:00:13;97510.0;;;
68446;BMP280;35789;48.414;12.768;2023-02-02T11:05:00;97500.0;;;
68446;BMP280;35789;48.414;12.768;2023-02-02T11:10:00;97500.0;;;
68446;BMP280;35789;48.414;12.768;2023-02-02T11:15:04;97500.0;;;
68446;BMP280;35789;48.414;12.768;2023-02-02T11:20:00;97500.0;;;
68446;BMP280;35789;48.414;12.768;2023-02-02T11:25:04;97500.0;;;
68446;BMP280;35789;48.414;12.768;2023-02-02T11:30:17;97500.0;;;
68446;BMP280;35789;48.414;12.768;2023-02-02T11:35:17;97490.0;;;
68446;BMP280;35789;48.414;12.768;2023-02-02T11:40:22;97480.0;;;
68446;BMP280;35789;48.414;12.768;2023-02-02T11:45:00;97480.0;;;
68446;BMP280;35789;48.414;12.768;2023-02-02T11:50:02;97480.0;;;
68446;BMP280;35789;48.414;12.768;2023-02-02T11:55:14;97470.0;;;
68446;BMP280;35789;48.414;12.768;2023-02-02T12:00:16;97460.0;;;
68446;BMP280;35789;48.414;12.768;2023-02-02T12:05:30;97460.0;;;
68446;BMP280;35789;48.414;12.768;2023-02-02T12:10:10;97460.0;;;
68446;BMP280;35789;48.414;12.768;2023-02-02T12:15:11;97460.0;;;
68446;BMP280;35789;48.414;12.768;2023-02-02T12:20:14;97460.0;;;
68446;BMP280;35789;48.414;12.768;2023-02-02T12:25:22;97450.0;;;
68446;BMP280;35789;48.414;12.768;2023-02-02T12:30:18;97450.0;;;
68446;BMP280;35789;48.414;12.768;2023-02-02T12:35:21;97450.0;;;
68446;BMP280;35789;48.414;12.768;2023-02-02T12:40:20;97460.0;;;
68446;BMP280;35789;48.414;12.768;2023-02-02T12:45:17;97460.0;;;
68446;BMP280;35789;48.414;12.768;2023-02-02T12:50:19;97460.0;;;
68446;BMP280;35789;48.414;12.768;2023-02-02T12:55:16;97450.0;;;
68446;BMP280;35789;48.414;12.768;2023-02-02T13:00:23;97450.0;;;
68446;BMP280;35789;48.414;12.768;2023-02-02T13:05:24;97450.0;;;
68446;BMP280;35789;48.414;12.768;2023-02-02T13:10:12;97460.0;;;
68446;BMP280;35789;48.414;12.768;2023-02-02T13:15:05;97470.0;;;
68446;BMP280;35789;48.414;12.768;2023-02-02T13:20:04;97470.0;;;
68446;BMP280;35789;48.414;12.768;2023-02-02T13:25:04;97470.0;;;
68446;BMP280;35789;48.414;12.768;2023-02-02T13:30:09;97470.0;;;
68446;BMP280;35789;48.414;12.768;2023-02-02T13:35:09;97470.0;;;
68446;BMP280;35789;48.414;12.768;2023-02-02T13:40:05;97470.0;;;
68446;BMP280;35789;48.414;12.768;2023-02-02T13:45:15;97470.0;;;
68446;BMP280;35789;48.414;12.768;2023-02-02T13:50:09;97460.0;;;
68446;BMP280;35789;48.414;12.768;2023-02-02T13:55:23;97470.0;;;
68446;BMP280;35789;48.414;12.768;2023-02-02T14:00:11;97460.0;;;
68446;BMP280;35789;48.414;12.768;2023-02-02T14:05:03;97460.0;;;
68446;BMP280;35789;48.414;12.768;2023-02-02T14:10:01;97470.0;;;
68446;BMP280;35789;48.414;12.768;2023-02-02T14:15:01;97470.0;;;
68446;BMP280;35789;48.414;12.768;2023-02-02T14:20:03;97460.0;;;
68446;BMP280;35789;48.414;12.768;2023-02-02T14:25:00;97470.0;;;
68446;BMP280;35789;48.414;12.768;2023-02-02T14:30:19;97470.0;;;
68446;BMP280;35789;48.414;12.768;2023-02-02T14:40:26;97470.0;;;
68446;BMP280;35789;48.414;12.768;2023-02-02T14:45:15;97490.0;;;
68446;BMP280;35789;48.414;12.768;2023-02-02T14:50:00;97480.0;;;
68446;BMP280;35789;48.414;12.768;2023-02-02T14:55:00;97490.0;;;
68446;BMP280;35789;48.414;12.768;2023-02-02T15:00:01;97490.0;;;
68446;BMP280;35789;48.414;12.768;2023-02-02T15:10:00;97510.0;;;
68446;BMP280;35789;48.414;12.768;2023-02-02T15:15:12;97510.0;;;
68446;BMP280;35789;48.414;12.768;2023-02-02T15:20:10;97520.0;;;
68446;BMP280;35789;48.414;12.768;2023-02-02T15:25:12;97540.0;;;
68446;BMP280;35789;48.414;12.768;2023-02-02T15:30:07;97540.0;;;
68446;BMP280;35789;48.414;12.768;2023-02-02T15:35:04;97550.0;;;
68446;BMP280;35789;48.414;12.768;2023-02-02T15:40:02;97560.0;;;
68446;BMP280;35789;48.414;12.768;2023-02-02T15:45:01;97570.0;;;
68446;BMP280;35789;48.414;12.768;2023-02-02T15:50:00;97580.0;;;
68446;BMP280;35789;48.414;12.768;2023-02-02T15:55:01;97600.0;;;
68446;BMP280;35789;48.414;12.768;2023-02-02T16:00:22;97610.0;;;
68446;BMP280;35789;48.414;12.768;2023-02-02T16:05:00;97620.0;;;
68446;BMP280;35789;48.414;12.768;2023-02-02T16:10:03;97650.0;;;
68446;BMP280;35789;48.414;12.768;2023-02-02T16:15:00;97670.0;;;
68446;BMP280;35789;48.414;12.768;2023-02-02T16:20:04;97670.0;;;
68446;BMP280;35789;48.414;12.768;2023-02-02T16:25:04;97680.0;;;
68446;BMP280;35789;48.414;12.768;2023-02-02T16:30:06;97690.0;;;
68446;BMP280;35789;48.414;12.768;2023-02-02T16:35:03;97700.0;;;
68446;BMP280;35789;48.414;12.768;2023-02-02T16:40:16;97710.0;;;
68446;BMP280;35789;48.414;12.768;2023-02-02T16:45:00;97720.0;;;
68446;BMP280;35789;48.414;12.768;2023-02-02T16:50:25;97750.0;;;
68446;BMP280;35789;48.414;12.768;2023-02-02T16:55:00;97760.0;;;
68446;BMP280;35789;48.414;12.768;2023-02-02T17:00:05;97770.0;;;
68446;BMP280;35789;48.414;12.768;2023-02-02T17:05:04;97780.0;;;
68446;BMP280;35789;48.414;12.768;2023-02-02T17:10:20;97790.0;;;
68446;BMP280;35789;48.414;12.768;2023-02-02T17:20:00;97810.0;;;
68446;BMP280;35789;48.414;12.768;2023-02-02T17:25:00;97810.0;;;
68446;BMP280;35789;48.414;12.768;2023-02-02T17:30:03;97820.0;;;
68446;BMP280;35789;48.414;12.768;2023-02-02T17:35:00;97820.0;;;
68446;BMP280;35789;48.414;12.768;2023-02-02T17:40:00;97830.0;;;
68446;BMP280;35789;48.414;12.768;2023-02-02T17:45:00;97850.0;;;
68446;BMP280;35789;48.414;12.768;2023-02-02T17:50:00;97860.0;;;
68446;BMP280;35789;48.414;12.768;2023-02-02T17:55:00;97860.0;;;
68446;BMP280;35789;48.414;12.768;2023-02-02T18:00:00;97860.0;;;
68446;BMP280;35789;48.414;12.768;2023-02-02T18:05:01;97880.0;;;
68446;BMP280;35789;48.414;12.768;2023-02-02T18:10:00;97900.0;;;
68446;BMP280;35789;48.414;12.768;2023-02-02T18:15:01;97900.0;;;
68446;BMP280;35789;48.414;12.768;2023-02-02T18:20:00;97910.0;;;
68446;BMP280;35789;48.414;12.768;2023-02-02T18:25:00;97910.0;;;
68446;BMP280;35789;48.414;12.768;2023-02-02T18:30:00;97920.0;;;
68446;BMP280;35789;48.414;12.768;2023-02-02T18:35:00;97920.0;;;
68446;BMP280;35789;48.414;12.768;2023-02-02T18:40:01;97920.0;;;
68446;BMP280;35789;48.414;12.768;2023-02-02T18:45:01;97940.0;;;
68446;BMP280;35789;48.414;12.768;2023-02-02T18:50:00;97940.0;;;
68446;BMP280;35789;48.414;12.768;2023-02-02T18:55:01;97950.0;;;
68446;BMP280;35789;48.414;12.768;2023-02-02T19:00:00;97960.0;;;
68446;BMP280;35789;48.414;12.768;2023-02-02T19:05:00;97960.0;;;
68446;BMP280;35789;48.414;12.768;2023-02-02T19:10:00;97970.0;;;
68446;BMP280;35789;48.414;12.768;2023-02-02T19:15:00;97970.0;;;
68446;BMP280;35789;48.414;12.768;2023-02-02T19:20:08;97970.0;;;
68446;BMP280;35789;48.414;12.768;2023-02-02T19:25:11;97980.0;;;
68446;BMP280;35789;48.414;12.768;2023-02-02T19:30:00;97980.0;;;
68446;BMP280;35789;48.414;12.768;2023-02-02T19:35:00;97980.0;;;
68446;BMP280;35789;48.414;12.768;2023-02-02T19:40:17;97980.0;;;
68446;BMP280;35789;48.414;12.768;2023-02-02T19:45:07;97990.0;;;
68446;BMP280;35789;48.414;12.768;2023-02-02T19:50:13;97990.0;;;
68446;BMP280;35789;48.414;12.768;2023-02-02T19:55:00;98000.0;;;
68446;BMP280;35789;48.414;12.768;2023-02-02T20:00:14;98000.0;;;
68446;BMP280;35789;48.414;12.768;2023-02-02T20:05:15;98000.0;;;
68446;BMP280;35789;48.414;12.768;2023-02-02T20:10:16;98000.0;;;
68446;BMP280;35789;48.414;12.768;2023-02-02T20:15:00;98010.0;;;
68446;BMP280;35789;48.414;12.768;2023-02-02T20:20:00;98010.0;;;
68446;BMP280;35789;48.414;12.768;2023-02-02T20:25:06;98010.0;;;
68446;BMP280;35789;48.414;12.768;2023-02-02T20:30:17;98020.0;;;
68446;BMP280;35789;48.414;12.768;2023-02-02T20:35:19;98020.0;;;
68446;BMP280;35789;48.414;12.768;2023-02-02T20:40:05;98030.0;;;
68446;BMP280;35789;48.414;12.768;2023-02-02T20:45:00;98030.0;;;
68446;BMP280;35789;48.414;12.768;2023-02-02T20:50:00;98040.0;;;
68446;BMP280;35789;48.414;12.768;2023-02-02T20:55:00;98030.0;;;
68446;BMP280;35789;48.414;12.768;2023-02-02T21:00:00;98030.0;;;
68446;BMP280;35789;48.414;12.768;2023-02-02T21:05:00;98040.0;;;
68446;BMP280;35789;48.414;12.768;2023-02-02T21:10:00;98030.0;;;
68446;BMP280;35789;48.414;12.768;2023-02-02T21:15:00;98030.0;;;
68446;BMP280;35789;48.414;12.768;2023-02-02T21:20:00;98020.0;;;
68446;BMP280;35789;48.414;12.768;2023-02-02T21:25:00;98030.0;;;
68446;BMP280;35789;48.414;12.768;2023-02-02T21:30:00;98030.0;;;
68446;BMP280;35789;48.414;12.768;2023-02-02T21:35:00;98030.0;;;
68446;BMP280;35789;48.414;12.768;2023-02-02T21:40:01;98040.0;;;
68446;BMP280;35789;48.414;12.768;2023-02-02T21:45:31;98040.0;;;
68446;BMP280;35789;48.414;12.768;2023-02-02T21:50:13;98040.0;;;
68446;BMP280;35789;48.414;12.768;2023-02-02T21:55:26;98050.0;;;
68446;BMP280;35789;48.414;12.768;2023-02-02T22:00:14;98050.0;;;
68446;BMP280;35789;48.414;12.768;2023-02-02T22:05:12;98060.0;;;
68446;BMP280;35789;48.414;12.768;2023-02-02T22:10:00;98060.0;;;
68446;BMP280;35789;48.414;12.768;2023-02-02T22:15:00;98060.0;;;
68446;BMP280;35789;48.414;12.768;2023-02-02T22:25:10;98060.0;;;
68446;BMP280;35789;48.414;12.768;2023-02-02T22:30:13;98060.0;;;
68446;BMP280;35789;48.414;12.768;2023-02-02T22:35:00;98060.0;;;
68446;BMP280;35789;48.414;12.768;2023-02-02T22:40:00;98060.0;;;
68446;BMP280;35789;48.414;12.768;2023-02-02T22:45:00;98060.0;;;
68446;BMP280;35789;48.414;12.768;2023-02-02T22:50:00;98050.0;;;
68446;BMP280;35789;48.414;12.768;2023-02-02T22:55:00;98050.0;;;
68446;BMP280;35789;48.414;12.768;2023-02-02T23:00:00;98050.0;;;
68446;BMP280;35789;48.414;12.768;2023-02-02T23:05:00;98050.0;;;
68446;BMP280;35789;48.414;12.768;2023-02-02T23:10:01;98040.0;;;
68446;BMP280;35789;48.414;12.768;2023-02-02T23:15:00;98050.0;;;
68446;BMP280;35789;48.414;12.768;2023-02-02T23:20:00;98050.0;;;
68446;BMP280;35789;48.414;12.768;2023-02-02T23:25:01;98050.0;;;
68446;BMP280;35789;48.414;12.768;2023-02-02T23:30:01;98050.0;;;
68446;BMP280;35789;48.414;12.768;2023-02-02T23:35:00;98040.0;;;
68446;BMP280;35789;48.414;12.768;2023-02-02T23:40:00;98040.0;;;
68446;BMP280;35789;48.414;12.768;2023-02-02T23:45:00;98040.0;;;
68446;BMP280;35789;48.414;12.768;2023-02-02T23:50:04;98030.0;;;
68446;BMP280;35789;48.414;12.768;2023-02-02T23:55:01;98040.0;;;
